Time;durP1;ratioP1;P1;durP2;ratioP2;P2;SDS_P1;SDS_P2;PMS_P1;PMS_P2;Temp;Humidity;BMP_temperature;BMP_pressure;BME280_temperature;BME280_humidity;BME280_pressure;Samples;Min_cycle;Max_cycle;Signal;HPM_P1;HPM_P2
2022/08/27 00:02:53;;;;;;;7.32;2.45;;;;;17.00;101267.00;;;;12792381;22;20301;-79
2022/08/27 00:07:54;;;;;;;6.60;2.42;;;;;16.90;101259.00;;;;12817684;22;20173;-79
2022/08/27 00:12:56;;;;;;;10.55;2.53;;;;;16.80;101265.00;;;;12792131;22;20185;-80
2022/08/27 00:17:57;;;;;;;6.33;2.80;;;;;16.70;101257.00;;;;12815607;22;20257;-79
2022/08/27 00:22:59;;;;;;;10.00;2.65;;;;;16.70;101270.00;;;;12836409;22;20265;-79
2022/08/27 00:28:01;;;;;;;7.10;2.72;;;;;16.80;101263.00;;;;12767248;22;20590;-80
2022/08/27 00:33:03;;;;;;;5.00;2.72;;;;;16.90;101267.00;;;;12791788;22;20178;-80
2022/08/27 00:38:05;;;;;;;4.60;2.40;;;;;16.90;101262.00;;;;12790394;22;20238;-79
2022/08/27 00:43:07;;;;;;;7.18;2.88;;;;;16.90;101263.00;;;;12766148;22;20276;-80
2022/08/27 00:48:13;;;;;;;4.93;2.50;;;;;16.90;101258.00;;;;12814479;22;20185;-80
2022/08/27 00:53:21;;;;;;;4.63;2.47;;;;;16.90;101255.00;;;;12815392;22;20585;-80
2022/08/27 00:58:31;;;;;;;5.90;2.80;;;;;16.80;101262.00;;;;12815378;22;20177;-80
2022/08/27 01:03:33;;;;;;;5.57;2.67;;;;;16.80;101257.00;;;;12814826;22;20193;-80
2022/08/27 01:08:38;;;;;;;8.50;4.55;;;;;16.90;101248.00;;;;12816491;22;20686;-79
2022/08/27 01:13:39;;;;;;;5.45;2.72;;;;;16.90;101241.00;;;;12837407;22;20668;-79
2022/08/27 01:19:04;;;;;;;6.32;2.97;;;;;16.80;101245.00;;;;12841002;22;20177;-80
2022/08/27 01:24:29;;;;;;;10.60;2.87;;;;;16.70;101239.00;;;;12791401;22;20194;-79
2022/08/27 01:29:30;;;;;;;9.73;2.50;;;;;16.50;101239.00;;;;12803664;22;20248;-80
2022/08/27 01:34:32;;;;;;;3.65;2.50;;;;;16.30;101235.00;;;;12789539;22;20178;-80
2022/08/27 01:39:36;;;;;;;7.00;2.50;;;;;16.20;101239.00;;;;12789644;22;20794;-80
2022/08/27 01:44:49;;;;;;;3.27;2.20;;;;;16.20;101230.00;;;;12835849;22;20676;-79
2022/08/27 01:49:50;;;;;;;5.60;2.57;;;;;16.10;101243.00;;;;12790281;22;20196;-79
2022/08/27 01:54:52;;;;;;;7.13;3.43;;;;;15.90;101236.00;;;;12765905;22;20178;-79
2022/08/27 01:59:55;;;;;;;8.43;2.47;;;;;15.80;101227.00;;;;12765709;22;20177;-80
2022/08/27 02:04:57;;;;;;;8.53;3.50;;;;;15.70;101224.00;;;;12814701;22;20197;-80
2022/08/27 02:09:58;;;;;;;5.37;2.40;;;;;15.50;101231.00;;;;12790358;22;20223;-79
2022/08/27 02:14:59;;;;;;;9.30;2.73;;;;;15.40;101218.00;;;;12764562;22;20170;-79
2022/08/27 02:20:01;;;;;;;7.13;2.97;;;;;15.30;101220.00;;;;12789276;22;20209;-80
2022/08/27 02:25:04;;;;;;;6.37;2.90;;;;;15.20;101219.00;;;;12789298;22;20208;-80
2022/08/27 02:30:14;;;;;;;7.57;2.37;;;;;15.10;101218.00;;;;12788694;22;20170;-80
2022/08/27 02:35:17;;;;;;;5.70;2.30;;;;;15.00;101218.00;;;;12811778;22;20170;-80
2022/08/27 02:40:21;;;;;;;6.27;2.57;;;;;14.80;101218.00;;;;12763024;22;20261;-80
2022/08/27 02:45:22;;;;;;;4.83;2.40;;;;;14.70;101207.00;;;;12812244;22;20170;-79
2022/08/27 02:50:24;;;;;;;6.10;3.17;;;;;14.60;101205.00;;;;12789638;22;20460;-79
2022/08/27 02:55:29;;;;;;;7.17;3.37;;;;;14.60;101208.00;;;;12792221;22;20174;-79
2022/08/27 03:00:30;;;;;;;5.87;3.00;;;;;14.40;101208.00;;;;12817107;22;20698;-79
2022/08/27 03:05:31;;;;;;;5.17;3.03;;;;;14.30;101204.00;;;;12818206;22;20178;-79
2022/08/27 03:10:33;;;;;;;9.87;3.23;;;;;14.20;101205.00;;;;12838394;22;20182;-79
2022/08/27 03:15:34;;;;;;;4.63;2.33;;;;;14.20;101210.00;;;;12792003;22;20181;-79
2022/08/27 03:20:44;;;;;;;4.13;2.50;;;;;14.20;101220.00;;;;12793140;22;20252;-79
2022/08/27 03:25:50;;;;;;;9.63;3.30;;;;;14.10;101219.00;;;;12794138;22;20205;-80
2022/08/27 03:31:00;;;;;;;6.10;3.03;;;;;14.10;101216.00;;;;12816666;22;20201;-80
2022/08/27 03:36:02;;;;;;;7.00;3.30;;;;;14.10;101222.00;;;;12838127;22;20216;-80
2022/08/27 03:41:05;;;;;;;7.70;3.00;;;;;14.20;101208.00;;;;12817755;22;20281;-80
2022/08/27 03:46:07;;;;;;;9.47;4.10;;;;;14.30;101223.00;;;;12793359;22;20166;-79
2022/08/27 03:51:12;;;;;;;7.23;3.20;;;;;14.40;101215.00;;;;12816152;22;20261;-80
2022/08/27 03:56:13;;;;;;;9.73;3.37;;;;;14.40;101207.00;;;;12795335;22;20171;-80
2022/08/27 04:01:16;;;;;;;5.13;2.90;;;;;14.50;101200.00;;;;12794247;22;20197;-79
2022/08/27 04:06:17;;;;;;;6.37;2.63;;;;;14.60;101211.00;;;;12813241;22;20208;-79
2022/08/27 04:11:19;;;;;;;9.33;3.23;;;;;14.60;101200.00;;;;12767731;22;20174;-79
2022/08/27 04:16:21;;;;;;;8.10;3.43;;;;;14.70;101207.00;;;;12815860;22;20194;-80
2022/08/27 04:21:22;;;;;;;6.37;2.70;;;;;14.70;101199.00;;;;12790593;22;20782;-79
2022/08/27 04:26:24;;;;;;;9.10;3.20;;;;;14.60;101202.00;;;;12816840;22;20618;-79
2022/08/27 04:31:26;;;;;;;3.90;2.70;;;;;14.50;101199.00;;;;12791399;22;20185;-80
2022/08/27 04:36:27;;;;;;;4.47;2.53;;;;;14.40;101201.00;;;;12790998;22;20273;-80
2022/08/27 04:41:32;;;;;;;6.70;3.30;;;;;14.20;101202.00;;;;12792049;22;20217;-79
2022/08/27 04:46:36;;;;;;;8.43;3.40;;;;;14.10;101209.00;;;;12837459;22;20189;-79
2022/08/27 04:51:39;;;;;;;6.73;2.80;;;;;14.20;101212.00;;;;12767955;22;20269;-80
2022/08/27 04:56:41;;;;;;;6.60;2.67;;;;;14.20;101208.00;;;;12790777;22;20167;-80
2022/08/27 05:01:42;;;;;;;7.73;2.87;;;;;14.30;101218.00;;;;12766233;22;20194;-80
2022/08/27 05:06:44;;;;;;;10.50;3.30;;;;;14.30;101222.00;;;;12814497;22;20186;-79
2022/08/27 05:11:46;;;;;;;7.43;3.30;;;;;14.30;101224.00;;;;12816537;22;20180;-79
2022/08/27 05:16:48;;;;;;;8.37;3.60;;;;;14.20;101222.00;;;;12790268;22;20634;-80
2022/08/27 05:21:51;;;;;;;5.13;3.17;;;;;14.20;101221.00;;;;12790885;22;20521;-79
2022/08/27 05:26:53;;;;;;;7.00;3.33;;;;;14.20;101231.00;;;;12815277;22;20170;-80
2022/08/27 05:31:55;;;;;;;8.17;3.93;;;;;14.30;101235.00;;;;12790745;22;20205;-80
2022/08/27 05:36:56;;;;;;;8.97;4.20;;;;;14.70;101242.00;;;;12810650;22;20487;-79
2022/08/27 05:41:58;;;;;;;6.90;3.67;;;;;15.10;101241.00;;;;12815928;22;20198;-79
2022/08/27 05:46:59;;;;;;;9.53;4.33;;;;;15.30;101240.00;;;;12766851;22;20174;-79
2022/08/27 05:52:00;;;;;;;10.00;4.47;;;;;15.50;101238.00;;;;12792537;22;20189;-80
2022/08/27 05:57:02;;;;;;;10.37;4.80;;;;;15.70;101240.00;;;;12765870;22;20200;-80
2022/08/27 06:02:04;;;;;;;7.03;5.10;;;;;15.80;101237.00;;;;12813661;22;20562;-79
2022/08/27 06:07:08;;;;;;;8.20;4.27;;;;;15.90;101233.00;;;;12790279;22;20984;-80
2022/08/27 06:12:09;;;;;;;10.50;4.10;;;;;16.20;101233.00;;;;12789847;22;20422;-80
2022/08/27 06:17:11;;;;;;;8.30;4.50;;;;;16.40;101233.00;;;;12814069;22;20181;-79
2022/08/27 06:22:13;;;;;;;10.10;4.57;;;;;16.60;101236.00;;;;12790414;22;20194;-80
2022/08/27 06:27:16;;;;;;;10.27;4.83;;;;;16.80;101237.00;;;;12818162;22;20200;-80
2022/08/27 06:32:18;;;;;;;17.20;7.17;;;;;17.10;101228.00;;;;12817419;22;20189;-80
2022/08/27 06:37:19;;;;;;;10.50;4.72;;;;;17.30;101225.00;;;;12817703;22;20189;-80
2022/08/27 06:42:20;;;;;;;8.40;4.85;;;;;17.50;101232.00;;;;12837335;22;20577;-80
2022/08/27 06:47:26;;;;;;;7.78;4.05;;;;;17.80;101235.00;;;;12792751;22;20258;-80
2022/08/27 06:52:27;;;;;;;7.18;4.10;;;;;17.90;101234.00;;;;12769539;22;20177;-80
2022/08/27 06:57:29;;;;;;;20.42;9.52;;;;;18.10;101242.00;;;;12769519;22;20174;-80
2022/08/27 07:02:31;;;;;;;8.52;3.67;;;;;18.60;101226.00;;;;12837530;22;20499;-80
2022/08/27 07:07:33;;;;;;;9.55;3.17;;;;;18.90;101228.00;;;;12790616;22;20174;-80
2022/08/27 07:12:40;;;;;;;6.93;3.38;;;;;19.20;101229.00;;;;12815239;22;20181;-80
2022/08/27 07:17:43;;;;;;;7.88;3.08;;;;;19.60;101231.00;;;;12790592;22;20602;-81
2022/08/27 07:22:46;;;;;;;8.43;3.10;;;;;19.50;101244.00;;;;12813709;22;20221;-79
2022/08/27 07:27:48;;;;;;;5.63;2.92;;;;;19.40;101245.00;;;;12834998;22;20166;-80
2022/08/27 07:32:50;;;;;;;6.78;2.55;;;;;19.80;101242.00;;;;12809503;22;20166;-80
2022/08/27 07:37:51;;;;;;;5.53;2.30;;;;;19.80;101242.00;;;;12861539;22;20622;-79
2022/08/27 07:48:15;;;;;;;3.95;1.70;;;;;20.80;101245.00;;;;12814343;22;20704;-79
2022/08/27 07:53:17;;;;;;;5.22;1.73;;;;;21.30;101244.00;;;;12812852;22;20177;-77
2022/08/27 07:58:18;;;;;;;4.78;1.83;;;;;21.70;101242.00;;;;12760565;22;20346;-79
2022/08/27 08:03:20;;;;;;;4.75;1.55;;;;;21.70;101242.00;;;;12813840;22;20194;-77
2022/08/27 08:08:22;;;;;;;5.32;2.10;;;;;22.10;101243.00;;;;12788783;22;20201;-79
2022/08/27 08:13:24;;;;;;;7.40;2.05;;;;;22.90;101249.00;;;;12764955;22;20185;-78
2022/08/27 08:18:27;;;;;;;13.43;7.05;;;;;23.60;101247.00;;;;12788886;22;20177;-78
2022/08/27 08:23:29;;;;;;;9.25;4.55;;;;;24.20;101250.00;;;;12834417;22;20216;-79
2022/08/27 08:28:30;;;;;;;6.32;2.08;;;;;24.10;101247.00;;;;12809043;22;20664;-79
2022/08/27 08:33:32;;;;;;;4.63;1.67;;;;;24.90;101240.00;;;;12812481;22;20261;-80
2022/08/27 08:38:35;;;;;;;5.45;2.10;;;;;26.20;101253.00;;;;12788889;22;20724;-80
2022/08/27 08:43:41;;;;;;;5.63;1.88;;;;;26.20;101250.00;;;;12789631;22;20542;-80
2022/08/27 08:48:48;;;;;;;4.13;1.90;;;;;27.30;101255.00;;;;12831008;22;20956;-80
2022/08/27 08:54:03;;;;;;;5.47;1.45;;;;;27.40;101253.00;;;;12785942;23;20557;-79
2022/08/27 08:59:27;;;;;;;4.97;1.80;;;;;27.60;101248.00;;;;12788224;22;20184;-79
2022/08/27 09:04:29;;;;;;;4.78;2.80;;;;;28.10;101250.00;;;;12763303;22;20637;-79
2022/08/27 09:09:34;;;;;;;5.35;2.47;;;;;28.50;101240.00;;;;12789514;22;20174;-79
2022/08/27 09:14:41;;;;;;;3.90;1.50;;;;;28.40;101249.00;;;;12815249;22;20174;-79
2022/08/27 09:19:47;;;;;;;5.15;1.77;;;;;28.40;101250.00;;;;12789098;22;20178;-79
2022/08/27 09:25:12;;;;;;;4.70;1.60;;;;;28.10;101251.00;;;;12765571;22;20259;-79
2022/08/27 09:30:21;;;;;;;3.60;1.42;;;;;28.50;101245.00;;;;12764315;22;20170;-77
2022/08/27 09:35:25;;;;;;;2.83;1.70;;;;;26.90;101253.00;;;;12789548;22;20256;-77
2022/08/27 09:40:36;;;;;;;2.45;1.40;;;;;24.70;101256.00;;;;12787871;22;20232;-79
2022/08/27 09:45:51;;;;;;;4.85;1.50;;;;;23.50;101255.00;;;;12813488;22;20202;-78
2022/08/27 09:50:56;;;;;;;6.95;1.70;;;;;24.80;101244.00;;;;12790431;22;20247;-78
2022/08/27 09:56:00;;;;;;;3.80;1.40;;;;;26.00;101237.00;;;;12833945;22;20224;-79
2022/08/27 10:01:19;;;;;;;5.68;1.60;;;;;27.00;101242.00;;;;12764791;22;20255;-78
2022/08/27 10:06:31;;;;;;;4.20;1.70;;;;;28.40;101229.00;;;;12858017;22;20177;-79
2022/08/27 10:11:38;;;;;;;4.35;1.52;;;;;28.40;101241.00;;;;12831002;22;20166;-79
2022/08/27 10:17:04;;;;;;;4.25;2.20;;;;;28.30;101222.00;;;;12811411;22;20170;-78
2022/08/27 10:22:30;;;;;;;2.83;2.00;;;;;29.30;101217.00;;;;12810829;22;20713;-78
2022/08/27 10:27:50;;;;;;;1.63;1.33;;;;;29.10;101222.00;;;;12784848;22;20196;-78
2022/08/27 10:33:31;;;;;;;4.18;1.60;;;;;28.10;101226.00;;;;12830905;22;20316;-78
2022/08/27 10:38:40;;;;;;;2.70;1.40;;;;;29.20;101211.00;;;;12785281;22;20240;-79
2022/08/27 10:44:12;;;;;;;4.18;1.77;;;;;27.70;101218.00;;;;12809216;22;20265;-78
2022/08/27 10:49:37;;;;;;;3.28;1.73;;;;;26.40;101209.00;;;;12784226;22;20625;-77
2022/08/27 10:55:05;;;;;;;3.97;1.63;;;;;25.60;101204.00;;;;12786587;22;20170;-77
2022/08/27 11:00:14;;;;;;;2.17;1.27;;;;;28.50;101183.00;;;;12810484;22;20228;-77
2022/08/27 11:05:36;;;;;;;3.97;1.65;;;;;31.30;101179.00;;;;12830725;22;20243;-78
2022/08/27 11:10:44;;;;;;;4.80;1.40;;;;;29.80;101190.00;;;;12835564;22;20166;-78
2022/08/27 11:15:50;;;;;;;3.95;1.85;;;;;28.50;101195.00;;;;12767025;22;20244;-78
2022/08/27 11:21:04;;;;;;;3.38;1.38;;;;;27.60;101198.00;;;;12813931;22;20201;-78
2022/08/27 11:26:06;;;;;;;2.70;1.40;;;;;27.80;101188.00;;;;12812660;22;20174;-78
2022/08/27 11:31:19;;;;;;;2.40;1.48;;;;;28.90;101196.00;;;;12789708;22;20174;-78
2022/08/27 11:36:39;;;;;;;5.63;1.77;;;;;29.00;101193.00;;;;12813165;22;20810;-78
2022/08/27 11:41:56;;;;;;;7.47;1.65;;;;;28.30;101187.00;;;;12832291;22;20209;-78
2022/08/27 11:47:24;;;;;;;3.47;2.15;;;;;27.60;101192.00;;;;12832337;22;20652;-79
2022/08/27 11:53:01;;;;;;;4.57;1.55;;;;;26.50;101200.00;;;;12837638;22;20179;-79
2022/08/27 11:58:18;;;;;;;3.83;1.75;;;;;25.40;101194.00;;;;12789135;22;20701;-78
2022/08/27 12:03:20;;;;;;;5.72;1.80;;;;;25.20;101190.00;;;;12810531;22;20210;-79
2022/08/27 12:08:21;;;;;;;3.10;1.65;;;;;25.40;101187.00;;;;12812968;22;20233;-79
2022/08/27 12:13:49;;;;;;;5.50;1.95;;;;;26.00;101188.00;;;;12788245;22;20170;-79
2022/08/27 12:19:00;;;;;;;1.60;1.30;;;;;26.50;101196.00;;;;12833889;22;20169;-79
2022/08/27 12:24:29;;;;;;;5.93;1.65;;;;;26.60;101187.00;;;;12789174;22;20681;-78
2022/08/27 12:29:55;;;;;;;4.07;1.70;;;;;26.80;101188.00;;;;12782090;22;20258;-77
2022/08/27 12:35:13;;;;;;;2.85;1.80;;;;;27.00;101193.00;;;;12836865;22;20166;-77
2022/08/27 12:40:27;;;;;;;3.67;1.70;;;;;26.60;101194.00;;;;12790965;22;20577;-77
2022/08/27 12:45:29;;;;;;;5.40;1.58;;;;;25.80;101198.00;;;;12789095;22;20625;-77
2022/08/27 12:50:31;;;;;;;3.83;1.77;;;;;25.20;101184.00;;;;12791404;22;20553;-77
2022/08/27 12:55:48;;;;;;;5.97;1.85;;;;;25.00;101191.00;;;;12767609;22;20198;-77
2022/08/27 13:01:17;;;;;;;5.22;1.73;;;;;25.10;101194.00;;;;12791976;22;20506;-77
2022/08/27 13:06:44;;;;;;;10.50;1.73;;;;;25.60;101182.00;;;;12861131;22;20273;-77
2022/08/27 13:11:55;;;;;;;5.53;1.70;;;;;25.90;101182.00;;;;12816319;22;20530;-77
2022/08/27 13:17:18;;;;;;;4.93;1.85;;;;;25.70;101182.00;;;;12813317;22;20174;-77
2022/08/27 13:22:25;;;;;;;4.53;2.03;;;;;26.30;101177.00;;;;12790240;22;20189;-78
2022/08/27 13:27:34;;;;;;;5.82;1.90;;;;;26.70;101180.00;;;;12788437;22;20802;-77
2022/08/27 13:32:36;;;;;;;6.68;2.25;;;;;26.90;101178.00;;;;12859045;22;20162;-77
2022/08/27 13:37:45;;;;;;;5.20;2.00;;;;;27.00;101174.00;;;;12764230;22;20190;-77
2022/08/27 13:42:46;;;;;;;4.18;1.73;;;;;27.00;101173.00;;;;12814369;22;20190;-76
2022/08/27 13:47:49;;;;;;;4.05;1.67;;;;;27.40;101167.00;;;;12810454;22;20227;-77
2022/08/27 13:58:19;;;;;;;3.88;1.80;;;;;27.20;101175.00;;;;12860073;22;20158;-77
2022/08/27 14:03:30;;;;;;;4.10;1.75;;;;;26.90;101169.00;;;;12859216;22;20186;-77
2022/08/27 14:08:35;;;;;;;3.40;2.08;;;;;26.50;101170.00;;;;12787500;22;20614;-77
2022/08/27 14:13:43;;;;;;;4.43;1.98;;;;;26.70;101164.00;;;;12814984;22;20179;-77
2022/08/27 14:19:01;;;;;;;4.40;1.80;;;;;26.40;101163.00;;;;12858494;22;20170;-78
2022/08/27 14:24:02;;;;;;;3.05;1.75;;;;;26.00;101156.00;;;;12788208;22;20469;-77
2022/08/27 14:29:04;;;;;;;5.03;2.50;;;;;25.40;101164.00;;;;12859970;22;20174;-77
2022/08/27 14:34:13;;;;;;;2.55;2.00;;;;;24.60;101166.00;;;;12809540;22;20175;-79
2022/08/27 14:39:14;;;;;;;4.25;2.17;;;;;23.90;101167.00;;;;12811155;22;20198;-77
2022/08/27 14:44:17;;;;;;;8.90;2.78;;;;;23.40;101163.00;;;;12791725;22;20213;-77
2022/08/27 14:49:30;;;;;;;6.47;1.88;;;;;23.30;101172.00;;;;12767970;22;20623;-79
2022/08/27 14:54:33;;;;;;;4.78;2.60;;;;;23.10;101174.00;;;;12766840;22;20178;-78
2022/08/27 14:59:35;;;;;;;4.85;2.00;;;;;23.20;101169.00;;;;12789264;22;20293;-79
2022/08/27 15:04:37;;;;;;;3.53;1.92;;;;;23.30;101177.00;;;;12835178;22;20883;-79
2022/08/27 15:09:39;;;;;;;4.30;2.30;;;;;23.50;101169.00;;;;12838955;22;20181;-79
2022/08/27 15:14:42;;;;;;;4.60;2.20;;;;;23.70;101168.00;;;;12856482;22;20212;-78
2022/08/27 15:19:43;;;;;;;4.25;2.00;;;;;23.80;101168.00;;;;12786782;22;20175;-79
2022/08/27 15:24:49;;;;;;;4.15;1.92;;;;;23.90;101168.00;;;;12790642;22;20198;-79
2022/08/27 15:29:51;;;;;;;5.72;1.90;;;;;24.10;101168.00;;;;12810360;22;20159;-79
2022/08/27 15:34:54;;;;;;;4.60;1.77;;;;;24.20;101165.00;;;;12789804;22;20340;-79
2022/08/27 15:39:56;;;;;;;3.42;1.73;;;;;24.40;101171.00;;;;12815554;22;20198;-78
2022/08/27 15:44:57;;;;;;;6.38;2.25;;;;;24.40;101169.00;;;;12859333;22;20659;-79
2022/08/27 15:49:59;;;;;;;3.90;1.75;;;;;24.00;101176.00;;;;12836104;22;20174;-78
2022/08/27 15:55:01;;;;;;;3.70;2.13;;;;;23.70;101181.00;;;;12765484;22;20182;-79
2022/08/27 16:00:03;;;;;;;5.53;2.58;;;;;23.50;101171.00;;;;12792053;22;20174;-80
2022/08/27 16:05:06;;;;;;;4.18;1.83;;;;;23.30;101175.00;;;;12815420;22;20228;-79
2022/08/27 16:10:08;;;;;;;4.75;1.90;;;;;23.20;101171.00;;;;12816574;22;20174;-80
2022/08/27 16:15:10;;;;;;;6.60;2.30;;;;;23.10;101177.00;;;;12791417;22;20178;-79
2022/08/27 16:20:14;;;;;;;6.35;2.05;;;;;23.00;101171.00;;;;12791241;22;20252;-79
2022/08/27 16:25:19;;;;;;;2.28;1.70;;;;;22.90;101171.00;;;;12791129;22;20212;-79
2022/08/27 16:30:23;;;;;;;4.07;2.20;;;;;22.80;101176.00;;;;12789178;22;20637;-79
2022/08/27 16:35:25;;;;;;;7.63;2.42;;;;;22.70;101171.00;;;;12815991;22;20189;-79
2022/08/27 16:40:26;;;;;;;5.07;2.88;;;;;22.70;101173.00;;;;12816764;22;20594;-79
2022/08/27 16:45:28;;;;;;;4.72;1.73;;;;;22.60;101170.00;;;;12792476;22;20229;-79
2022/08/27 16:50:35;;;;;;;2.38;1.60;;;;;22.40;101167.00;;;;12766902;22;20197;-79
2022/08/27 16:55:36;;;;;;;3.47;1.58;;;;;22.40;101160.00;;;;12837268;22;20281;-79
2022/08/27 17:00:38;;;;;;;4.75;2.65;;;;;22.40;101157.00;;;;12791624;22;20166;-79
2022/08/27 17:05:39;;;;;;;19.63;15.13;;;;;22.40;101163.00;;;;12790954;22;20882;-79
2022/08/27 17:10:45;;;;;;;4.53;2.13;;;;;22.30;101155.00;;;;12792496;22;20633;-79
2022/08/27 17:15:50;;;;;;;4.57;1.40;;;;;22.20;101159.00;;;;12766526;22;20166;-79
2022/08/27 17:20:55;;;;;;;2.85;1.40;;;;;22.20;101156.00;;;;12836647;22;20166;-79
2022/08/27 17:25:57;;;;;;;4.18;1.38;;;;;22.10;101159.00;;;;12861253;22;20165;-79
2022/08/27 17:31:01;;;;;;;6.43;1.77;;;;;22.00;101163.00;;;;12814871;22;20193;-79
2022/08/27 17:36:03;;;;;;;2.30;1.67;;;;;21.90;101163.00;;;;12766720;22;20283;-79
2022/08/27 17:41:36;;;;;;;4.68;2.03;;;;;21.80;101160.00;;;;12790411;22;20184;-79
2022/08/27 17:46:39;;;;;;;5.78;2.00;;;;;21.70;101168.00;;;;12835605;22;20174;-80
2022/08/27 17:51:41;;;;;;;7.18;3.38;;;;;21.60;101166.00;;;;12791022;22;20272;-79
2022/08/27 17:56:42;;;;;;;5.75;2.13;;;;;21.50;101164.00;;;;12790891;22;20181;-79
2022/08/27 18:01:43;;;;;;;3.03;1.40;;;;;21.40;101165.00;;;;12790215;22;20197;-79
2022/08/27 18:06:45;;;;;;;4.22;1.25;;;;;21.30;101172.00;;;;12790164;22;20170;-79
2022/08/27 18:11:47;;;;;;;2.45;1.30;;;;;21.10;101177.00;;;;12788739;22;20177;-79
2022/08/27 18:16:48;;;;;;;6.10;1.73;;;;;21.00;101180.00;;;;12836134;22;20166;-79
2022/08/27 18:21:50;;;;;;;5.35;1.80;;;;;20.90;101185.00;;;;12769622;22;20244;-79
2022/08/27 18:26:52;;;;;;;5.63;2.10;;;;;20.80;101188.00;;;;12794218;22;20177;-78
2022/08/27 18:31:54;;;;;;;4.97;1.77;;;;;20.70;101186.00;;;;12794068;22;20178;-79
2022/08/27 18:36:55;;;;;;;4.10;1.67;;;;;20.60;101190.00;;;;12795216;22;20281;-79
2022/08/27 18:41:57;;;;;;;5.07;1.60;;;;;20.50;101191.00;;;;12794078;22;20201;-79
2022/08/27 18:46:58;;;;;;;3.80;1.40;;;;;20.40;101197.00;;;;12793203;22;20684;-79
2022/08/27 18:52:00;;;;;;;2.05;1.52;;;;;20.40;101209.00;;;;12819069;22;20197;-78
2022/08/27 18:57:01;;;;;;;6.10;1.85;;;;;20.30;101213.00;;;;12839861;23;20166;-79
2022/08/27 19:02:03;;;;;;;3.65;1.55;;;;;20.30;101215.00;;;;12819234;22;20194;-79
2022/08/27 19:07:05;;;;;;;5.22;1.73;;;;;20.20;101229.00;;;;12791778;22;20273;-79
2022/08/27 19:12:06;;;;;;;2.42;1.38;;;;;20.20;101229.00;;;;12816467;22;20170;-79
2022/08/27 19:17:23;;;;;;;6.05;1.25;;;;;20.20;101237.00;;;;12792141;22;20178;-78
2022/08/27 19:22:25;;;;;;;5.03;1.40;;;;;20.10;101234.00;;;;12817477;22;20894;-78
2022/08/27 19:27:28;;;;;;;5.35;1.50;;;;;20.10;101238.00;;;;12791972;22;20197;-79
2022/08/27 19:32:30;;;;;;;4.28;1.70;;;;;20.00;101240.00;;;;12842463;22;20174;-79
2022/08/27 19:37:34;;;;;;;5.53;1.52;;;;;20.00;101244.00;;;;12817958;22;20182;-78
2022/08/27 19:42:35;;;;;;;4.50;1.48;;;;;20.00;101247.00;;;;12795240;22;20236;-79
2022/08/27 19:47:37;;;;;;;4.18;1.42;;;;;20.00;101252.00;;;;12792543;22;20166;-79
2022/08/27 19:52:39;;;;;;;2.75;1.50;;;;;19.90;101252.00;;;;12864445;22;20188;-78
2022/08/27 19:57:42;;;;;;;4.13;1.50;;;;;19.90;101257.00;;;;12795089;22;20197;-79
2022/08/27 20:02:43;;;;;;;4.88;1.50;;;;;19.80;101259.00;;;;12838678;22;20182;-78
2022/08/27 20:07:47;;;;;;;8.77;1.35;;;;;19.80;101259.00;;;;12791822;22;20254;-79
2022/08/27 20:12:48;;;;;;;3.05;1.25;;;;;19.80;101252.00;;;;12839182;22;20709;-79
2022/08/27 20:17:51;;;;;;;4.32;1.40;;;;;19.70;101253.00;;;;12792911;22;20170;-78
2022/08/27 20:22:54;;;;;;;5.53;1.30;;;;;19.70;101255.00;;;;12793578;22;20194;-78
2022/08/27 20:27:56;;;;;;;6.28;1.55;;;;;19.60;101259.00;;;;12793479;22;20174;-79
2022/08/27 20:32:58;;;;;;;7.38;1.75;;;;;19.60;101258.00;;;;12793122;22;20201;-79
2022/08/27 20:38:00;;;;;;;9.38;1.65;;;;;19.60;101263.00;;;;12843528;22;20194;-79
2022/08/27 20:43:01;;;;;;;5.18;1.30;;;;;19.50;101261.00;;;;12817833;22;20256;-79
2022/08/27 20:48:05;;;;;;;7.18;1.88;;;;;19.50;101271.00;;;;12794850;22;20189;-80
2022/08/27 20:53:06;;;;;;;5.93;1.42;;;;;19.40;101274.00;;;;12768818;22;20170;-79
2022/08/27 21:03:28;;;;;;;3.17;1.27;;;;;19.40;101281.00;;;;12843565;22;20197;-79
2022/08/27 21:08:29;;;;;;;4.78;1.30;;;;;19.30;101292.00;;;;12837353;22;20607;-78
2022/08/27 21:13:31;;;;;;;4.90;1.13;;;;;19.30;101290.00;;;;12768441;22;20178;-79
2022/08/27 21:18:32;;;;;;;3.28;1.23;;;;;19.30;101290.00;;;;12793895;22;20177;-79
2022/08/27 21:23:37;;;;;;;6.90;1.52;;;;;19.30;101286.00;;;;12838850;22;20213;-79
2022/08/27 21:28:41;;;;;;;5.90;1.55;;;;;19.20;101293.00;;;;12769333;22;20175;-79
2022/08/27 21:33:42;;;;;;;9.15;1.88;;;;;19.20;101299.00;;;;12792869;22;20202;-79
2022/08/27 21:38:44;;;;;;;6.43;1.60;;;;;19.20;101295.00;;;;12792890;22;20197;-78
2022/08/27 21:43:45;;;;;;;4.93;2.13;;;;;19.10;101296.00;;;;12792376;22;20750;-78
2022/08/27 21:48:47;;;;;;;5.13;1.90;;;;;19.10;101301.00;;;;12838571;22;20224;-79
2022/08/27 21:53:59;;;;;;;6.15;1.73;;;;;19.00;101298.00;;;;12860426;22;20245;-79
2022/08/27 21:59:01;;;;;;;5.18;1.88;;;;;19.00;101295.00;;;;12861972;22;20163;-79
2022/08/27 22:04:03;;;;;;;7.15;1.88;;;;;19.00;101300.00;;;;12767039;22;20230;-79
2022/08/27 22:09:04;;;;;;;10.05;2.03;;;;;18.90;101302.00;;;;12791388;22;20181;-79
2022/08/27 22:14:05;;;;;;;8.02;2.08;;;;;18.90;101308.00;;;;12860475;22;20255;-79
2022/08/27 22:19:07;;;;;;;5.28;1.73;;;;;18.80;101308.00;;;;12810072;22;20638;-79
2022/08/27 22:24:10;;;;;;;6.70;2.03;;;;;18.80;101307.00;;;;12790289;22;20194;-80
2022/08/27 22:29:11;;;;;;;4.65;1.83;;;;;18.70;101315.00;;;;12816666;22;20170;-80
2022/08/27 22:34:12;;;;;;;9.05;1.70;;;;;18.70;101313.00;;;;12837152;22;20185;-79
2022/08/27 22:39:16;;;;;;;5.82;1.88;;;;;18.70;101316.00;;;;12790743;22;20217;-79
2022/08/27 22:44:17;;;;;;;8.80;2.15;;;;;18.60;101315.00;;;;12816011;22;20204;-79
2022/08/27 22:49:18;;;;;;;6.05;2.00;;;;;18.60;101318.00;;;;12791069;22;20170;-79
2022/08/27 22:54:20;;;;;;;6.95;2.10;;;;;18.50;101319.00;;;;12790866;22;20712;-79
2022/08/27 22:59:21;;;;;;;7.30;1.80;;;;;18.50;101335.00;;;;12860353;22;20166;-79
2022/08/27 23:04:23;;;;;;;7.13;2.30;;;;;18.50;101330.00;;;;12791732;22;20189;-79
2022/08/27 23:09:44;;;;;;;9.32;2.47;;;;;18.40;101327.00;;;;12865602;22;20170;-79
2022/08/27 23:14:45;;;;;;;6.05;1.92;;;;;18.40;101333.00;;;;12767717;22;20170;-79
2022/08/27 23:19:46;;;;;;;4.40;2.00;;;;;18.40;101323.00;;;;12818627;22;20177;-79
2022/08/27 23:30:08;;;;;;;7.57;2.17;;;;;18.30;101332.00;;;;12793348;22;20242;-79
2022/08/27 23:35:10;;;;;;;6.75;2.05;;;;;18.30;101336.00;;;;12768152;22;20785;-79
2022/08/27 23:40:11;;;;;;;7.45;2.30;;;;;18.20;101325.00;;;;12792564;22;20190;-79
2022/08/27 23:45:16;;;;;;;3.28;2.00;;;;;18.20;101332.00;;;;12793281;22;20221;-79
2022/08/27 23:50:18;;;;;;;8.60;2.10;;;;;18.20;101328.00;;;;12840984;22;20220;-79
2022/08/27 23:55:19;;;;;;;4.28;2.20;;;;;18.10;101331.00;;;;12817978;22;20209;-80
